sensor_id;sensor_type;location;lat;lon;timestamp;temperature;humidity
18888;DHT22;9576;47.792;9.628;2023-04-15T00:02:15;3.70;99.90
18888;DHT22;9576;47.792;9.628;2023-04-15T00:05:17;3.70;99.90
18888;DHT22;9576;47.792;9.628;2023-04-15T00:08:19;3.60;99.90
18888;DHT22;9576;47.792;9.628;2023-04-15T00:11:23;3.60;99.90
18888;DHT22;9576;47.792;9.628;2023-04-15T00:14:25;3.60;99.90
18888;DHT22;9576;47.792;9.628;2023-04-15T00:17:26;3.50;99.90
18888;DHT22;9576;47.792;9.628;2023-04-15T00:20:28;3.50;99.90
18888;DHT22;9576;47.792;9.628;2023-04-15T00:23:30;3.40;99.90
18888;DHT22;9576;47.792;9.628;2023-04-15T00:26:34;3.50;99.90
18888;DHT22;9576;47.792;9.628;2023-04-15T00:29:36;3.40;99.90
18888;DHT22;9576;47.792;9.628;2023-04-15T00:32:38;3.40;99.90
18888;DHT22;9576;47.792;9.628;2023-04-15T00:35:40;3.30;99.90
18888;DHT22;9576;47.792;9.628;2023-04-15T00:38:42;3.30;99.90
18888;DHT22;9576;47.792;9.628;2023-04-15T00:41:45;3.30;99.90
18888;DHT22;9576;47.792;9.628;2023-04-15T00:44:47;3.30;99.90
18888;DHT22;9576;47.792;9.628;2023-04-15T00:47:50;3.20;99.90
18888;DHT22;9576;47.792;9.628;2023-04-15T00:50:52;3.20;99.90
18888;DHT22;9576;47.792;9.628;2023-04-15T00:53:53;3.20;99.90
18888;DHT22;9576;47.792;9.628;2023-04-15T00:56:57;3.10;99.90
18888;DHT22;9576;47.792;9.628;2023-04-15T01:00:00;3.10;99.90
18888;DHT22;9576;47.792;9.628;2023-04-15T01:03:02;3.00;99.90
18888;DHT22;9576;47.792;9.628;2023-04-15T01:06:05;3.10;99.90
18888;DHT22;9576;47.792;9.628;2023-04-15T01:09:07;3.00;99.90
18888;DHT22;9576;47.792;9.628;2023-04-15T01:12:11;3.00;99.90
18888;DHT22;9576;47.792;9.628;2023-04-15T01:15:15;3.00;99.90
18888;DHT22;9576;47.792;9.628;2023-04-15T01:18:17;3.00;99.90
18888;DHT22;9576;47.792;9.628;2023-04-15T01:21:19;2.90;99.90
18888;DHT22;9576;47.792;9.628;2023-04-15T01:24:22;2.90;99.90
18888;DHT22;9576;47.792;9.628;2023-04-15T01:27:26;2.90;99.90
18888;DHT22;9576;47.792;9.628;2023-04-15T01:30:28;2.90;99.90
18888;DHT22;9576;47.792;9.628;2023-04-15T01:33:30;2.90;99.90
18888;DHT22;9576;47.792;9.628;2023-04-15T01:36:33;2.80;99.90
18888;DHT22;9576;47.792;9.628;2023-04-15T01:39:35;2.80;99.90
18888;DHT22;9576;47.792;9.628;2023-04-15T01:42:38;2.80;99.90
18888;DHT22;9576;47.792;9.628;2023-04-15T01:45:40;2.70;99.90
18888;DHT22;9576;47.792;9.628;2023-04-15T01:48:42;2.70;99.90
18888;DHT22;9576;47.792;9.628;2023-04-15T01:51:44;2.70;99.90
18888;DHT22;9576;47.792;9.628;2023-04-15T01:54:46;2.70;99.90
18888;DHT22;9576;47.792;9.628;2023-04-15T01:57:49;2.70;99.90
18888;DHT22;9576;47.792;9.628;2023-04-15T02:00:52;2.70;99.90
18888;DHT22;9576;47.792;9.628;2023-04-15T02:03:53;2.60;99.90
18888;DHT22;9576;47.792;9.628;2023-04-15T02:06:56;2.60;99.90
18888;DHT22;9576;47.792;9.628;2023-04-15T02:09:58;2.60;99.90
18888;DHT22;9576;47.792;9.628;2023-04-15T02:13:01;2.60;99.90
18888;DHT22;9576;47.792;9.628;2023-04-15T02:16:03;2.50;99.90
18888;DHT22;9576;47.792;9.628;2023-04-15T02:19:05;2.60;99.90
18888;DHT22;9576;47.792;9.628;2023-04-15T02:22:08;2.50;99.90
18888;DHT22;9576;47.792;9.628;2023-04-15T02:25:12;2.50;99.90
18888;DHT22;9576;47.792;9.628;2023-04-15T02:28:17;2.40;99.90
18888;DHT22;9576;47.792;9.628;2023-04-15T02:31:19;2.40;99.90
18888;DHT22;9576;47.792;9.628;2023-04-15T02:34:21;2.30;99.90
18888;DHT22;9576;47.792;9.628;2023-04-15T02:37:23;2.30;99.90
18888;DHT22;9576;47.792;9.628;2023-04-15T02:40:27;2.30;99.90
18888;DHT22;9576;47.792;9.628;2023-04-15T02:43:30;2.30;99.90
18888;DHT22;9576;47.792;9.628;2023-04-15T02:46:32;2.30;99.90
18888;DHT22;9576;47.792;9.628;2023-04-15T02:49:34;2.30;99.90
18888;DHT22;9576;47.792;9.628;2023-04-15T02:52:36;2.30;99.90
18888;DHT22;9576;47.792;9.628;2023-04-15T02:55:38;2.30;99.90
18888;DHT22;9576;47.792;9.628;2023-04-15T02:58:42;2.20;99.90
18888;DHT22;9576;47.792;9.628;2023-04-15T03:01:45;2.20;99.90
18888;DHT22;9576;47.792;9.628;2023-04-15T03:04:47;2.20;99.90
18888;DHT22;9576;47.792;9.628;2023-04-15T03:07:49;2.20;99.90
18888;DHT22;9576;47.792;9.628;2023-04-15T03:10:51;2.10;99.90
18888;DHT22;9576;47.792;9.628;2023-04-15T03:13:55;2.10;99.90
18888;DHT22;9576;47.792;9.628;2023-04-15T03:16:57;2.10;99.90
18888;DHT22;9576;47.792;9.628;2023-04-15T03:20:01;2.10;99.90
18888;DHT22;9576;47.792;9.628;2023-04-15T03:23:03;2.00;99.90
18888;DHT22;9576;47.792;9.628;2023-04-15T03:26:05;2.00;99.90
18888;DHT22;9576;47.792;9.628;2023-04-15T03:29:08;2.00;99.90
18888;DHT22;9576;47.792;9.628;2023-04-15T03:32:10;1.90;99.90
18888;DHT22;9576;47.792;9.628;2023-04-15T03:35:14;1.90;99.90
18888;DHT22;9576;47.792;9.628;2023-04-15T03:38:16;1.90;99.90
18888;DHT22;9576;47.792;9.628;2023-04-15T03:41:18;1.90;99.90
18888;DHT22;9576;47.792;9.628;2023-04-15T03:44:22;1.90;99.90
18888;DHT22;9576;47.792;9.628;2023-04-15T03:47:24;1.90;99.90
18888;DHT22;9576;47.792;9.628;2023-04-15T03:50:26;1.90;99.90
18888;DHT22;9576;47.792;9.628;2023-04-15T03:53:28;1.80;99.90
18888;DHT22;9576;47.792;9.628;2023-04-15T03:56:30;1.80;99.90
18888;DHT22;9576;47.792;9.628;2023-04-15T03:59:33;1.80;99.90
18888;DHT22;9576;47.792;9.628;2023-04-15T04:02:35;1.80;99.90
18888;DHT22;9576;47.792;9.628;2023-04-15T04:05:37;1.70;99.90
18888;DHT22;9576;47.792;9.628;2023-04-15T04:08:41;1.70;99.90
18888;DHT22;9576;47.792;9.628;2023-04-15T04:11:42;1.60;99.90
18888;DHT22;9576;47.792;9.628;2023-04-15T04:14:47;1.60;99.90
18888;DHT22;9576;47.792;9.628;2023-04-15T04:17:48;1.60;99.90
18888;DHT22;9576;47.792;9.628;2023-04-15T04:20:50;1.60;99.90
18888;DHT22;9576;47.792;9.628;2023-04-15T04:23:52;1.60;99.90
18888;DHT22;9576;47.792;9.628;2023-04-15T04:26:54;1.60;99.90
18888;DHT22;9576;47.792;9.628;2023-04-15T04:29:58;1.60;99.90
18888;DHT22;9576;47.792;9.628;2023-04-15T04:33:00;1.60;99.90
18888;DHT22;9576;47.792;9.628;2023-04-15T04:36:02;1.60;99.90
18888;DHT22;9576;47.792;9.628;2023-04-15T04:39:04;1.60;99.90
18888;DHT22;9576;47.792;9.628;2023-04-15T04:42:06;1.60;99.90
18888;DHT22;9576;47.792;9.628;2023-04-15T04:45:10;1.60;99.90
18888;DHT22;9576;47.792;9.628;2023-04-15T04:48:12;1.60;99.90
18888;DHT22;9576;47.792;9.628;2023-04-15T04:51:14;1.60;99.90
18888;DHT22;9576;47.792;9.628;2023-04-15T04:54:16;1.60;99.90
18888;DHT22;9576;47.792;9.628;2023-04-15T04:57:18;1.60;99.90
18888;DHT22;9576;47.792;9.628;2023-04-15T05:00:21;1.60;99.90
18888;DHT22;9576;47.792;9.628;2023-04-15T05:03:24;1.60;99.90
18888;DHT22;9576;47.792;9.628;2023-04-15T05:06:26;1.60;99.90
18888;DHT22;9576;47.792;9.628;2023-04-15T05:09:30;1.60;99.90
18888;DHT22;9576;47.792;9.628;2023-04-15T05:12:32;1.60;99.90
18888;DHT22;9576;47.792;9.628;2023-04-15T05:15:36;1.70;99.90
18888;DHT22;9576;47.792;9.628;2023-04-15T05:18:40;1.70;99.90
18888;DHT22;9576;47.792;9.628;2023-04-15T05:21:42;1.70;99.90
18888;DHT22;9576;47.792;9.628;2023-04-15T05:24:44;1.80;99.90
18888;DHT22;9576;47.792;9.628;2023-04-15T05:27:46;1.80;99.90
18888;DHT22;9576;47.792;9.628;2023-04-15T05:30:49;1.80;99.90
18888;DHT22;9576;47.792;9.628;2023-04-15T05:33:51;1.90;99.90
18888;DHT22;9576;47.792;9.628;2023-04-15T05:36:53;1.90;99.90
18888;DHT22;9576;47.792;9.628;2023-04-15T05:39:55;1.80;99.90
18888;DHT22;9576;47.792;9.628;2023-04-15T05:42:57;1.80;99.90
18888;DHT22;9576;47.792;9.628;2023-04-15T05:46:00;1.70;99.90
18888;DHT22;9576;47.792;9.628;2023-04-15T05:49:02;1.70;99.90
18888;DHT22;9576;47.792;9.628;2023-04-15T05:52:04;1.70;99.90
18888;DHT22;9576;47.792;9.628;2023-04-15T05:55:07;1.70;99.90
18888;DHT22;9576;47.792;9.628;2023-04-15T05:58:09;1.70;99.90
18888;DHT22;9576;47.792;9.628;2023-04-15T06:01:12;1.70;99.90
18888;DHT22;9576;47.792;9.628;2023-04-15T06:04:14;1.80;99.90
18888;DHT22;9576;47.792;9.628;2023-04-15T06:07:16;1.70;99.90
18888;DHT22;9576;47.792;9.628;2023-04-15T06:10:18;1.80;99.90
18888;DHT22;9576;47.792;9.628;2023-04-15T06:13:20;1.80;99.90
18888;DHT22;9576;47.792;9.628;2023-04-15T06:16:23;1.90;99.90
18888;DHT22;9576;47.792;9.628;2023-04-15T06:19:25;2.00;99.90
18888;DHT22;9576;47.792;9.628;2023-04-15T06:22:27;2.00;99.90
18888;DHT22;9576;47.792;9.628;2023-04-15T06:25:29;2.10;99.90
18888;DHT22;9576;47.792;9.628;2023-04-15T06:28:31;2.20;99.90
18888;DHT22;9576;47.792;9.628;2023-04-15T06:31:34;2.20;99.90
18888;DHT22;9576;47.792;9.628;2023-04-15T06:34:36;2.20;99.90
18888;DHT22;9576;47.792;9.628;2023-04-15T06:37:38;2.40;99.90
18888;DHT22;9576;47.792;9.628;2023-04-15T06:40:40;2.60;99.90
18888;DHT22;9576;47.792;9.628;2023-04-15T06:43:42;2.80;99.90
18888;DHT22;9576;47.792;9.628;2023-04-15T06:46:46;3.00;99.90
18888;DHT22;9576;47.792;9.628;2023-04-15T06:49:48;3.10;99.90
18888;DHT22;9576;47.792;9.628;2023-04-15T06:52:50;3.20;99.90
18888;DHT22;9576;47.792;9.628;2023-04-15T06:55:51;3.30;99.90
18888;DHT22;9576;47.792;9.628;2023-04-15T06:58:53;3.40;99.90
18888;DHT22;9576;47.792;9.628;2023-04-15T07:01:57;3.50;99.90
18888;DHT22;9576;47.792;9.628;2023-04-15T07:04:58;3.60;99.90
18888;DHT22;9576;47.792;9.628;2023-04-15T07:08:01;3.80;99.90
18888;DHT22;9576;47.792;9.628;2023-04-15T07:11:03;4.00;99.90
18888;DHT22;9576;47.792;9.628;2023-04-15T07:14:05;4.10;99.90
18888;DHT22;9576;47.792;9.628;2023-04-15T07:17:08;4.10;99.90
18888;DHT22;9576;47.792;9.628;2023-04-15T07:20:11;4.30;99.90
18888;DHT22;9576;47.792;9.628;2023-04-15T07:23:14;4.60;99.90
18888;DHT22;9576;47.792;9.628;2023-04-15T07:26:16;4.80;99.90
18888;DHT22;9576;47.792;9.628;2023-04-15T07:29:18;4.80;99.90
18888;DHT22;9576;47.792;9.628;2023-04-15T07:32:21;4.90;99.90
18888;DHT22;9576;47.792;9.628;2023-04-15T07:35:23;5.10;99.90
18888;DHT22;9576;47.792;9.628;2023-04-15T07:38:26;5.30;99.90
18888;DHT22;9576;47.792;9.628;2023-04-15T07:41:28;5.50;99.90
18888;DHT22;9576;47.792;9.628;2023-04-15T07:44:30;5.70;99.90
18888;DHT22;9576;47.792;9.628;2023-04-15T07:47:33;5.90;99.90
18888;DHT22;9576;47.792;9.628;2023-04-15T07:50:35;6.00;99.90
18888;DHT22;9576;47.792;9.628;2023-04-15T07:53:37;6.20;99.90
18888;DHT22;9576;47.792;9.628;2023-04-15T07:56:39;6.50;99.90
18888;DHT22;9576;47.792;9.628;2023-04-15T07:59:41;6.70;99.90
18888;DHT22;9576;47.792;9.628;2023-04-15T08:02:44;6.70;99.90
18888;DHT22;9576;47.792;9.628;2023-04-15T08:05:47;6.80;99.90
18888;DHT22;9576;47.792;9.628;2023-04-15T08:08:49;7.20;99.90
18888;DHT22;9576;47.792;9.628;2023-04-15T08:11:51;7.30;99.90
18888;DHT22;9576;47.792;9.628;2023-04-15T08:14:54;7.20;99.90
18888;DHT22;9576;47.792;9.628;2023-04-15T08:17:58;7.40;99.90
18888;DHT22;9576;47.792;9.628;2023-04-15T08:21:00;7.70;99.90
18888;DHT22;9576;47.792;9.628;2023-04-15T08:24:02;7.80;99.90
18888;DHT22;9576;47.792;9.628;2023-04-15T08:27:05;7.90;99.90
18888;DHT22;9576;47.792;9.628;2023-04-15T08:30:08;8.10;99.90
18888;DHT22;9576;47.792;9.628;2023-04-15T08:33:11;8.30;99.90
18888;DHT22;9576;47.792;9.628;2023-04-15T08:36:13;8.40;99.90
18888;DHT22;9576;47.792;9.628;2023-04-15T08:39:15;8.50;99.90
18888;DHT22;9576;47.792;9.628;2023-04-15T08:42:22;8.70;99.90
18888;DHT22;9576;47.792;9.628;2023-04-15T08:45:24;8.90;99.90
18888;DHT22;9576;47.792;9.628;2023-04-15T08:48:29;9.00;99.90
18888;DHT22;9576;47.792;9.628;2023-04-15T08:51:33;9.20;99.90
18888;DHT22;9576;47.792;9.628;2023-04-15T08:54:35;9.40;99.90
18888;DHT22;9576;47.792;9.628;2023-04-15T08:57:38;9.40;99.90
18888;DHT22;9576;47.792;9.628;2023-04-15T09:00:40;9.50;99.90
18888;DHT22;9576;47.792;9.628;2023-04-15T09:03:43;9.80;99.90
18888;DHT22;9576;47.792;9.628;2023-04-15T09:06:46;9.90;99.90
18888;DHT22;9576;47.792;9.628;2023-04-15T09:09:48;10.10;99.90
18888;DHT22;9576;47.792;9.628;2023-04-15T09:12:51;10.40;99.90
18888;DHT22;9576;47.792;9.628;2023-04-15T09:15:53;10.60;99.90
18888;DHT22;9576;47.792;9.628;2023-04-15T09:18:56;10.40;99.90
18888;DHT22;9576;47.792;9.628;2023-04-15T09:21:59;10.50;99.90
18888;DHT22;9576;47.792;9.628;2023-04-15T09:25:01;10.70;99.90
18888;DHT22;9576;47.792;9.628;2023-04-15T09:28:03;10.80;99.90
18888;DHT22;9576;47.792;9.628;2023-04-15T09:31:06;10.90;99.90
18888;DHT22;9576;47.792;9.628;2023-04-15T09:34:09;10.90;99.90
18888;DHT22;9576;47.792;9.628;2023-04-15T09:37:11;10.90;99.90
18888;DHT22;9576;47.792;9.628;2023-04-15T09:40:30;11.00;99.90
18888;DHT22;9576;47.792;9.628;2023-04-15T09:43:39;11.00;99.90
18888;DHT22;9576;47.792;9.628;2023-04-15T09:46:41;11.10;99.90
18888;DHT22;9576;47.792;9.628;2023-04-15T09:49:54;11.30;99.90
18888;DHT22;9576;47.792;9.628;2023-04-15T09:52:56;11.40;99.90
18888;DHT22;9576;47.792;9.628;2023-04-15T09:55:59;11.40;99.90
18888;DHT22;9576;47.792;9.628;2023-04-15T09:59:01;11.50;99.90
18888;DHT22;9576;47.792;9.628;2023-04-15T10:02:04;11.60;99.90
18888;DHT22;9576;47.792;9.628;2023-04-15T10:05:09;11.60;99.90
18888;DHT22;9576;47.792;9.628;2023-04-15T10:08:12;11.70;99.90
18888;DHT22;9576;47.792;9.628;2023-04-15T10:11:16;11.80;99.90
18888;DHT22;9576;47.792;9.628;2023-04-15T10:14:19;11.90;99.90
18888;DHT22;9576;47.792;9.628;2023-04-15T10:17:22;12.00;99.90
18888;DHT22;9576;47.792;9.628;2023-04-15T10:20:28;12.10;99.90
18888;DHT22;9576;47.792;9.628;2023-04-15T10:23:31;12.20;99.90
18888;DHT22;9576;47.792;9.628;2023-04-15T10:26:34;12.20;99.90
18888;DHT22;9576;47.792;9.628;2023-04-15T10:29:36;12.30;99.90
18888;DHT22;9576;47.792;9.628;2023-04-15T10:32:38;12.40;99.90
18888;DHT22;9576;47.792;9.628;2023-04-15T10:35:43;12.40;99.90
18888;DHT22;9576;47.792;9.628;2023-04-15T10:38:45;12.50;99.90
18888;DHT22;9576;47.792;9.628;2023-04-15T10:42:05;12.70;99.90
18888;DHT22;9576;47.792;9.628;2023-04-15T10:45:15;12.80;99.90
18888;DHT22;9576;47.792;9.628;2023-04-15T10:48:17;12.80;99.90
18888;DHT22;9576;47.792;9.628;2023-04-15T10:51:29;12.70;99.90
18888;DHT22;9576;47.792;9.628;2023-04-15T10:54:32;12.80;99.90
18888;DHT22;9576;47.792;9.628;2023-04-15T10:57:38;12.90;99.90
18888;DHT22;9576;47.792;9.628;2023-04-15T11:00:49;12.90;99.90
18888;DHT22;9576;47.792;9.628;2023-04-15T11:03:51;13.10;99.90
18888;DHT22;9576;47.792;9.628;2023-04-15T11:07:05;13.30;99.90
18888;DHT22;9576;47.792;9.628;2023-04-15T11:13:55;14.00;99.90
18888;DHT22;9576;47.792;9.628;2023-04-15T11:16:57;14.00;99.90
18888;DHT22;9576;47.792;9.628;2023-04-15T11:20:00;14.00;99.90
18888;DHT22;9576;47.792;9.628;2023-04-15T11:23:04;14.10;99.90
18888;DHT22;9576;47.792;9.628;2023-04-15T11:26:07;13.90;99.90
18888;DHT22;9576;47.792;9.628;2023-04-15T11:29:16;14.00;99.90
18888;DHT22;9576;47.792;9.628;2023-04-15T11:32:20;14.00;99.90
18888;DHT22;9576;47.792;9.628;2023-04-15T11:35:22;13.90;99.90
18888;DHT22;9576;47.792;9.628;2023-04-15T11:38:25;14.00;99.90
18888;DHT22;9576;47.792;9.628;2023-04-15T11:41:27;14.00;99.90
18888;DHT22;9576;47.792;9.628;2023-04-15T11:44:29;14.20;99.90
18888;DHT22;9576;47.792;9.628;2023-04-15T11:47:31;14.10;99.90
18888;DHT22;9576;47.792;9.628;2023-04-15T11:50:34;14.20;99.90
18888;DHT22;9576;47.792;9.628;2023-04-15T11:53:39;14.40;99.90
18888;DHT22;9576;47.792;9.628;2023-04-15T11:56:41;14.30;99.90
18888;DHT22;9576;47.792;9.628;2023-04-15T11:59:53;14.30;99.90
18888;DHT22;9576;47.792;9.628;2023-04-15T12:03:11;14.20;99.90
18888;DHT22;9576;47.792;9.628;2023-04-15T12:06:17;14.20;99.90
18888;DHT22;9576;47.792;9.628;2023-04-15T12:09:21;14.10;99.90
18888;DHT22;9576;47.792;9.628;2023-04-15T12:12:26;14.10;99.90
18888;DHT22;9576;47.792;9.628;2023-04-15T12:15:28;14.40;99.90
18888;DHT22;9576;47.792;9.628;2023-04-15T12:18:31;14.60;99.90
18888;DHT22;9576;47.792;9.628;2023-04-15T12:21:34;14.50;99.90
18888;DHT22;9576;47.792;9.628;2023-04-15T12:24:40;14.40;99.90
18888;DHT22;9576;47.792;9.628;2023-04-15T12:27:50;14.30;99.90
18888;DHT22;9576;47.792;9.628;2023-04-15T12:30:52;14.10;99.90
18888;DHT22;9576;47.792;9.628;2023-04-15T12:33:55;13.90;99.90
18888;DHT22;9576;47.792;9.628;2023-04-15T12:36:58;14.00;99.90
18888;DHT22;9576;47.792;9.628;2023-04-15T12:40:02;13.90;99.90
18888;DHT22;9576;47.792;9.628;2023-04-15T12:43:03;13.80;99.90
18888;DHT22;9576;47.792;9.628;2023-04-15T12:46:05;13.40;99.90
18888;DHT22;9576;47.792;9.628;2023-04-15T12:49:07;13.10;99.90
18888;DHT22;9576;47.792;9.628;2023-04-15T12:52:09;12.90;99.90
18888;DHT22;9576;47.792;9.628;2023-04-15T12:55:13;12.80;99.90
18888;DHT22;9576;47.792;9.628;2023-04-15T12:58:15;12.90;99.90
18888;DHT22;9576;47.792;9.628;2023-04-15T13:01:17;13.00;99.90
18888;DHT22;9576;47.792;9.628;2023-04-15T13:04:19;13.30;99.90
18888;DHT22;9576;47.792;9.628;2023-04-15T13:07:21;13.90;99.90
18888;DHT22;9576;47.792;9.628;2023-04-15T13:10:25;14.20;99.90
18888;DHT22;9576;47.792;9.628;2023-04-15T13:13:27;14.50;99.90
18888;DHT22;9576;47.792;9.628;2023-04-15T13:16:31;14.60;99.90
18888;DHT22;9576;47.792;9.628;2023-04-15T13:19:33;14.80;99.90
18888;DHT22;9576;47.792;9.628;2023-04-15T13:22:36;14.80;99.90
18888;DHT22;9576;47.792;9.628;2023-04-15T13:25:39;14.90;99.90
18888;DHT22;9576;47.792;9.628;2023-04-15T13:28:42;15.20;99.90
18888;DHT22;9576;47.792;9.628;2023-04-15T13:31:43;15.10;99.90
18888;DHT22;9576;47.792;9.628;2023-04-15T13:34:45;15.10;99.90
18888;DHT22;9576;47.792;9.628;2023-04-15T13:37:47;15.20;99.90
18888;DHT22;9576;47.792;9.628;2023-04-15T13:40:51;15.00;99.90
18888;DHT22;9576;47.792;9.628;2023-04-15T13:43:52;14.60;99.90
18888;DHT22;9576;47.792;9.628;2023-04-15T13:46:55;14.30;99.90
18888;DHT22;9576;47.792;9.628;2023-04-15T13:49:57;13.90;99.90
18888;DHT22;9576;47.792;9.628;2023-04-15T13:52:59;13.40;99.90
18888;DHT22;9576;47.792;9.628;2023-04-15T13:56:02;13.00;99.90
18888;DHT22;9576;47.792;9.628;2023-04-15T13:59:04;12.80;99.90
18888;DHT22;9576;47.792;9.628;2023-04-15T14:02:08;12.70;99.90
18888;DHT22;9576;47.792;9.628;2023-04-15T14:05:10;12.70;99.90
18888;DHT22;9576;47.792;9.628;2023-04-15T14:08:12;12.50;99.90
18888;DHT22;9576;47.792;9.628;2023-04-15T14:11:15;12.50;99.90
18888;DHT22;9576;47.792;9.628;2023-04-15T14:14:17;12.50;99.90
18888;DHT22;9576;47.792;9.628;2023-04-15T14:17:19;12.20;99.90
18888;DHT22;9576;47.792;9.628;2023-04-15T14:20:21;12.10;99.90
18888;DHT22;9576;47.792;9.628;2023-04-15T14:23:23;12.00;99.90
18888;DHT22;9576;47.792;9.628;2023-04-15T14:26:27;11.90;99.90
18888;DHT22;9576;47.792;9.628;2023-04-15T14:29:28;11.90;99.90
18888;DHT22;9576;47.792;9.628;2023-04-15T14:32:30;11.80;99.90
18888;DHT22;9576;47.792;9.628;2023-04-15T14:35:32;11.60;99.90
18888;DHT22;9576;47.792;9.628;2023-04-15T14:38:34;11.70;99.90
18888;DHT22;9576;47.792;9.628;2023-04-15T14:41:39;11.60;99.90
18888;DHT22;9576;47.792;9.628;2023-04-15T14:44:41;11.50;99.90
18888;DHT22;9576;47.792;9.628;2023-04-15T14:47:44;11.40;99.90
18888;DHT22;9576;47.792;9.628;2023-04-15T14:50:46;11.30;99.90
18888;DHT22;9576;47.792;9.628;2023-04-15T14:53:48;11.20;99.90
18888;DHT22;9576;47.792;9.628;2023-04-15T14:56:51;11.20;99.90
18888;DHT22;9576;47.792;9.628;2023-04-15T14:59:53;11.10;99.90
18888;DHT22;9576;47.792;9.628;2023-04-15T15:02:56;11.00;99.90
18888;DHT22;9576;47.792;9.628;2023-04-15T15:05:58;10.90;99.90
18888;DHT22;9576;47.792;9.628;2023-04-15T15:09:00;10.80;99.90
18888;DHT22;9576;47.792;9.628;2023-04-15T15:12:03;10.80;99.90
18888;DHT22;9576;47.792;9.628;2023-04-15T15:15:06;10.70;99.90
18888;DHT22;9576;47.792;9.628;2023-04-15T15:18:09;10.80;99.90
18888;DHT22;9576;47.792;9.628;2023-04-15T15:21:11;10.90;99.90
18888;DHT22;9576;47.792;9.628;2023-04-15T15:24:13;10.90;99.90
18888;DHT22;9576;47.792;9.628;2023-04-15T15:27:16;11.00;99.90
18888;DHT22;9576;47.792;9.628;2023-04-15T15:30:18;10.90;99.90
18888;DHT22;9576;47.792;9.628;2023-04-15T15:33:20;10.70;99.90
18888;DHT22;9576;47.792;9.628;2023-04-15T15:36:22;10.50;99.90
18888;DHT22;9576;47.792;9.628;2023-04-15T15:39:26;10.20;99.90
18888;DHT22;9576;47.792;9.628;2023-04-15T15:42:31;9.90;99.90
18888;DHT22;9576;47.792;9.628;2023-04-15T15:45:34;9.70;99.90
18888;DHT22;9576;47.792;9.628;2023-04-15T15:48:36;9.50;99.90
18888;DHT22;9576;47.792;9.628;2023-04-15T15:51:38;9.40;99.90
18888;DHT22;9576;47.792;9.628;2023-04-15T15:54:40;9.20;99.90
18888;DHT22;9576;47.792;9.628;2023-04-15T15:57:43;9.10;99.90
18888;DHT22;9576;47.792;9.628;2023-04-15T16:00:46;9.00;99.90
18888;DHT22;9576;47.792;9.628;2023-04-15T16:03:48;9.10;99.90
18888;DHT22;9576;47.792;9.628;2023-04-15T16:06:50;9.20;99.90
18888;DHT22;9576;47.792;9.628;2023-04-15T16:09:52;9.20;99.90
18888;DHT22;9576;47.792;9.628;2023-04-15T16:12:55;9.20;99.90
18888;DHT22;9576;47.792;9.628;2023-04-15T16:15:57;9.20;99.90
18888;DHT22;9576;47.792;9.628;2023-04-15T16:18:59;9.20;99.90
18888;DHT22;9576;47.792;9.628;2023-04-15T16:22:01;9.20;99.90
18888;DHT22;9576;47.792;9.628;2023-04-15T16:25:03;9.20;99.90
18888;DHT22;9576;47.792;9.628;2023-04-15T16:28:07;9.20;99.90
18888;DHT22;9576;47.792;9.628;2023-04-15T16:31:10;9.30;99.90
18888;DHT22;9576;47.792;9.628;2023-04-15T16:34:12;9.30;99.90
18888;DHT22;9576;47.792;9.628;2023-04-15T16:37:15;9.40;99.90
18888;DHT22;9576;47.792;9.628;2023-04-15T16:40:17;9.50;99.90
18888;DHT22;9576;47.792;9.628;2023-04-15T16:43:20;9.70;99.90
18888;DHT22;9576;47.792;9.628;2023-04-15T16:46:22;9.70;99.90
18888;DHT22;9576;47.792;9.628;2023-04-15T16:49:24;9.70;99.90
18888;DHT22;9576;47.792;9.628;2023-04-15T16:52:27;9.80;99.90
18888;DHT22;9576;47.792;9.628;2023-04-15T16:55:29;9.70;99.90
18888;DHT22;9576;47.792;9.628;2023-04-15T16:58:32;9.60;99.90
18888;DHT22;9576;47.792;9.628;2023-04-15T17:01:34;9.50;99.90
18888;DHT22;9576;47.792;9.628;2023-04-15T17:04:36;9.30;99.90
18888;DHT22;9576;47.792;9.628;2023-04-15T17:07:38;9.10;99.90
18888;DHT22;9576;47.792;9.628;2023-04-15T17:10:40;9.00;99.90
18888;DHT22;9576;47.792;9.628;2023-04-15T17:13:45;8.90;99.90
18888;DHT22;9576;47.792;9.628;2023-04-15T17:16:47;9.00;99.90
18888;DHT22;9576;47.792;9.628;2023-04-15T17:19:49;9.00;99.90
18888;DHT22;9576;47.792;9.628;2023-04-15T17:22:51;9.10;99.90
18888;DHT22;9576;47.792;9.628;2023-04-15T17:25:53;9.20;99.90
18888;DHT22;9576;47.792;9.628;2023-04-15T17:28:56;9.20;99.90
18888;DHT22;9576;47.792;9.628;2023-04-15T17:31:59;9.20;99.90
18888;DHT22;9576;47.792;9.628;2023-04-15T17:35:02;9.20;99.90
18888;DHT22;9576;47.792;9.628;2023-04-15T17:38:05;9.00;99.90
18888;DHT22;9576;47.792;9.628;2023-04-15T17:41:07;8.90;99.90
18888;DHT22;9576;47.792;9.628;2023-04-15T17:44:10;8.90;99.90
18888;DHT22;9576;47.792;9.628;2023-04-15T17:47:12;8.80;99.90
18888;DHT22;9576;47.792;9.628;2023-04-15T17:50:14;8.70;99.90
18888;DHT22;9576;47.792;9.628;2023-04-15T17:53:16;8.60;99.90
18888;DHT22;9576;47.792;9.628;2023-04-15T17:56:18;8.50;99.90
18888;DHT22;9576;47.792;9.628;2023-04-15T17:59:21;8.40;99.90
18888;DHT22;9576;47.792;9.628;2023-04-15T18:02:23;8.30;99.90
18888;DHT22;9576;47.792;9.628;2023-04-15T18:05:25;8.10;99.90
18888;DHT22;9576;47.792;9.628;2023-04-15T18:08:27;7.90;99.90
18888;DHT22;9576;47.792;9.628;2023-04-15T18:11:30;7.80;99.90
18888;DHT22;9576;47.792;9.628;2023-04-15T18:14:34;7.70;99.90
18888;DHT22;9576;47.792;9.628;2023-04-15T18:17:36;7.60;99.90
18888;DHT22;9576;47.792;9.628;2023-04-15T18:20:38;7.50;99.90
18888;DHT22;9576;47.792;9.628;2023-04-15T18:23:40;7.40;99.90
18888;DHT22;9576;47.792;9.628;2023-04-15T18:26:42;7.30;99.90
18888;DHT22;9576;47.792;9.628;2023-04-15T18:29:45;7.30;99.90
18888;DHT22;9576;47.792;9.628;2023-04-15T18:32:47;7.30;99.90
18888;DHT22;9576;47.792;9.628;2023-04-15T18:35:49;7.30;99.90
18888;DHT22;9576;47.792;9.628;2023-04-15T18:38:51;7.30;99.90
18888;DHT22;9576;47.792;9.628;2023-04-15T18:41:54;7.30;99.90
18888;DHT22;9576;47.792;9.628;2023-04-15T18:44:57;7.40;99.90
18888;DHT22;9576;47.792;9.628;2023-04-15T18:47:59;7.30;99.90
18888;DHT22;9576;47.792;9.628;2023-04-15T18:51:01;7.40;99.90
18888;DHT22;9576;47.792;9.628;2023-04-15T18:54:03;7.40;99.90
18888;DHT22;9576;47.792;9.628;2023-04-15T18:57:05;7.40;99.90
18888;DHT22;9576;47.792;9.628;2023-04-15T19:00:10;7.40;99.90
18888;DHT22;9576;47.792;9.628;2023-04-15T19:03:12;7.30;99.90
18888;DHT22;9576;47.792;9.628;2023-04-15T19:06:14;7.30;99.90
18888;DHT22;9576;47.792;9.628;2023-04-15T19:09:16;7.40;99.90
18888;DHT22;9576;47.792;9.628;2023-04-15T19:12:19;7.40;99.90
18888;DHT22;9576;47.792;9.628;2023-04-15T19:15:22;7.40;99.90
18888;DHT22;9576;47.792;9.628;2023-04-15T19:18:25;7.50;99.90
18888;DHT22;9576;47.792;9.628;2023-04-15T19:21:28;7.50;99.90
18888;DHT22;9576;47.792;9.628;2023-04-15T19:24:31;7.50;99.90
18888;DHT22;9576;47.792;9.628;2023-04-15T19:27:33;7.60;99.90
18888;DHT22;9576;47.792;9.628;2023-04-15T19:30:36;7.50;99.90
18888;DHT22;9576;47.792;9.628;2023-04-15T19:33:38;7.30;99.90
18888;DHT22;9576;47.792;9.628;2023-04-15T19:36:40;7.20;99.90
18888;DHT22;9576;47.792;9.628;2023-04-15T19:39:42;7.20;99.90
18888;DHT22;9576;47.792;9.628;2023-04-15T19:42:44;7.30;99.90
18888;DHT22;9576;47.792;9.628;2023-04-15T19:45:48;7.20;99.90
18888;DHT22;9576;47.792;9.628;2023-04-15T19:48:51;7.20;99.90
18888;DHT22;9576;47.792;9.628;2023-04-15T19:51:53;7.00;99.90